Terminal Aerodrome Forecast
Issued by NWS

Home | Current Version | Previous Version | Graphics & Text | Print | Product List | Glossary On
Versions: 1 2 3 4 5 6 7 8 9 10 11 12 13 14 15 16 17
973
FTUS43 KBIS 202335
TAFMOT
TAF
KMOT 202335Z 2100/2124 07010KT P6SM SCT200
     FM210300 10005KT P6SM SCT120
     FM210800 20005KT P6SM BKN120
     FM211500 28006KT P6SM BKN150
     FM212000 32013G21KT P6SM SCT110=

USA.gov is the U.S. government's official web portal to all federal, state and local government web resources and services.